sensor_id;sensor_type;location;lat;lon;timestamp;P1;durP1;ratioP1;P2;durP2;ratioP2
9773;SDS011;4926;42.670;23.316;2023-04-03T00:00:31;5.93;;;2.92;;
9773;SDS011;4926;42.670;23.316;2023-04-03T00:03:01;4.00;;;2.83;;
9773;SDS011;4926;42.670;23.316;2023-04-03T00:05:28;3.83;;;2.60;;
9773;SDS011;4926;42.670;23.316;2023-04-03T00:07:55;4.97;;;2.65;;
9773;SDS011;4926;42.670;23.316;2023-04-03T00:10:29;5.45;;;2.65;;
9773;SDS011;4926;42.670;23.316;2023-04-03T00:12:58;3.42;;;2.60;;
9773;SDS011;4926;42.670;23.316;2023-04-03T00:15:25;3.45;;;2.60;;
9773;SDS011;4926;42.670;23.316;2023-04-03T00:17:54;5.15;;;2.55;;
9773;SDS011;4926;42.670;23.316;2023-04-03T00:20:21;3.10;;;2.47;;
9773;SDS011;4926;42.670;23.316;2023-04-03T00:22:50;4.43;;;3.00;;
9773;SDS011;4926;42.670;23.316;2023-04-03T00:25:17;4.30;;;3.00;;
9773;SDS011;4926;42.670;23.316;2023-04-03T00:27:47;5.93;;;2.97;;
9773;SDS011;4926;42.670;23.316;2023-04-03T00:30:14;4.85;;;3.50;;
9773;SDS011;4926;42.670;23.316;2023-04-03T00:32:43;7.03;;;3.80;;
9773;SDS011;4926;42.670;23.316;2023-04-03T00:35:11;5.60;;;3.20;;
9773;SDS011;4926;42.670;23.316;2023-04-03T00:37:47;4.53;;;3.22;;
9773;SDS011;4926;42.670;23.316;2023-04-03T00:40:14;5.50;;;3.47;;
9773;SDS011;4926;42.670;23.316;2023-04-03T00:42:42;5.88;;;3.60;;
9773;SDS011;4926;42.670;23.316;2023-04-03T00:45:23;4.35;;;3.08;;
9773;SDS011;4926;42.670;23.316;2023-04-03T00:47:56;5.80;;;3.45;;
9773;SDS011;4926;42.670;23.316;2023-04-03T00:50:27;4.15;;;3.40;;
9773;SDS011;4926;42.670;23.316;2023-04-03T00:52:55;4.82;;;3.20;;
9773;SDS011;4926;42.670;23.316;2023-04-03T00:55:22;4.35;;;3.47;;
9773;SDS011;4926;42.670;23.316;2023-04-03T00:57:49;4.93;;;3.60;;
9773;SDS011;4926;42.670;23.316;2023-04-03T01:00:19;6.32;;;4.32;;
9773;SDS011;4926;42.670;23.316;2023-04-03T01:02:47;6.80;;;4.20;;
9773;SDS011;4926;42.670;23.316;2023-04-03T01:05:14;8.35;;;5.13;;
9773;SDS011;4926;42.670;23.316;2023-04-03T01:07:47;8.35;;;5.68;;
9773;SDS011;4926;42.670;23.316;2023-04-03T01:10:17;11.60;;;6.35;;
9773;SDS011;4926;42.670;23.316;2023-04-03T01:12:46;10.65;;;6.00;;
9773;SDS011;4926;42.670;23.316;2023-04-03T01:15:16;9.02;;;6.00;;
9773;SDS011;4926;42.670;23.316;2023-04-03T01:17:48;8.80;;;6.20;;
9773;SDS011;4926;42.670;23.316;2023-04-03T01:23:25;10.55;;;6.57;;
9773;SDS011;4926;42.670;23.316;2023-04-03T01:26:06;13.63;;;6.18;;
9773;SDS011;4926;42.670;23.316;2023-04-03T01:28:34;13.65;;;6.35;;
9773;SDS011;4926;42.670;23.316;2023-04-03T01:31:02;8.98;;;5.97;;
9773;SDS011;4926;42.670;23.316;2023-04-03T01:33:38;7.72;;;5.90;;
9773;SDS011;4926;42.670;23.316;2023-04-03T01:36:08;11.85;;;6.30;;
9773;SDS011;4926;42.670;23.316;2023-04-03T01:38:36;5.93;;;3.28;;
9773;SDS011;4926;42.670;23.316;2023-04-03T01:41:02;9.07;;;4.80;;
9773;SDS011;4926;42.670;23.316;2023-04-03T01:43:29;5.28;;;4.10;;
9773;SDS011;4926;42.670;23.316;2023-04-03T01:46:01;4.72;;;3.53;;
9773;SDS011;4926;42.670;23.316;2023-04-03T01:48:29;4.75;;;3.53;;
9773;SDS011;4926;42.670;23.316;2023-04-03T01:50:58;5.40;;;3.10;;
9773;SDS011;4926;42.670;23.316;2023-04-03T01:53:27;7.03;;;2.92;;
9773;SDS011;4926;42.670;23.316;2023-04-03T01:56:10;5.10;;;3.08;;
9773;SDS011;4926;42.670;23.316;2023-04-03T01:58:37;3.67;;;2.80;;
9773;SDS011;4926;42.670;23.316;2023-04-03T02:01:04;2.60;;;2.30;;
9773;SDS011;4926;42.670;23.316;2023-04-03T02:03:31;3.60;;;3.03;;
9773;SDS011;4926;42.670;23.316;2023-04-03T02:06:00;5.00;;;3.08;;
9773;SDS011;4926;42.670;23.316;2023-04-03T02:08:26;4.18;;;3.33;;
9773;SDS011;4926;42.670;23.316;2023-04-03T02:10:53;3.90;;;2.90;;
9773;SDS011;4926;42.670;23.316;2023-04-03T02:13:20;4.40;;;3.33;;
9773;SDS011;4926;42.670;23.316;2023-04-03T02:15:47;4.55;;;2.97;;
9773;SDS011;4926;42.670;23.316;2023-04-03T02:18:13;4.82;;;2.88;;
9773;SDS011;4926;42.670;23.316;2023-04-03T02:20:40;5.10;;;2.90;;
9773;SDS011;4926;42.670;23.316;2023-04-03T02:23:08;3.20;;;2.72;;
9773;SDS011;4926;42.670;23.316;2023-04-03T02:25:35;5.68;;;3.13;;
9773;SDS011;4926;42.670;23.316;2023-04-03T02:28:02;3.53;;;2.80;;
9773;SDS011;4926;42.670;23.316;2023-04-03T02:30:29;3.90;;;2.88;;
9773;SDS011;4926;42.670;23.316;2023-04-03T02:32:55;7.05;;;3.20;;
9773;SDS011;4926;42.670;23.316;2023-04-03T02:35:22;4.68;;;3.00;;
9773;SDS011;4926;42.670;23.316;2023-04-03T02:37:49;5.18;;;3.17;;
9773;SDS011;4926;42.670;23.316;2023-04-03T02:40:22;4.63;;;3.28;;
9773;SDS011;4926;42.670;23.316;2023-04-03T02:42:49;5.35;;;3.67;;
9773;SDS011;4926;42.670;23.316;2023-04-03T02:45:16;4.50;;;3.42;;
9773;SDS011;4926;42.670;23.316;2023-04-03T02:47:42;6.65;;;3.30;;
9773;SDS011;4926;42.670;23.316;2023-04-03T02:50:10;5.07;;;3.90;;
9773;SDS011;4926;42.670;23.316;2023-04-03T02:52:37;9.35;;;5.00;;
9773;SDS011;4926;42.670;23.316;2023-04-03T02:55:04;6.63;;;5.28;;
9773;SDS011;4926;42.670;23.316;2023-04-03T02:57:33;8.20;;;5.70;;
9773;SDS011;4926;42.670;23.316;2023-04-03T03:00:00;10.82;;;5.70;;
9773;SDS011;4926;42.670;23.316;2023-04-03T03:02:29;8.68;;;5.60;;
9773;SDS011;4926;42.670;23.316;2023-04-03T03:04:59;8.38;;;5.45;;
9773;SDS011;4926;42.670;23.316;2023-04-03T03:07:26;7.15;;;4.50;;
9773;SDS011;4926;42.670;23.316;2023-04-03T03:09:53;8.57;;;5.07;;
9773;SDS011;4926;42.670;23.316;2023-04-03T03:12:22;6.32;;;4.70;;
9773;SDS011;4926;42.670;23.316;2023-04-03T03:14:51;9.10;;;4.85;;
9773;SDS011;4926;42.670;23.316;2023-04-03T03:17:19;6.57;;;4.40;;
9773;SDS011;4926;42.670;23.316;2023-04-03T03:19:45;6.15;;;4.75;;
9773;SDS011;4926;42.670;23.316;2023-04-03T03:22:12;7.47;;;4.72;;
9773;SDS011;4926;42.670;23.316;2023-04-03T03:24:42;7.18;;;4.75;;
9773;SDS011;4926;42.670;23.316;2023-04-03T03:27:08;8.32;;;5.00;;
9773;SDS011;4926;42.670;23.316;2023-04-03T03:29:35;8.38;;;5.53;;
9773;SDS011;4926;42.670;23.316;2023-04-03T03:32:03;7.68;;;4.80;;
9773;SDS011;4926;42.670;23.316;2023-04-03T03:34:31;9.18;;;4.90;;
9773;SDS011;4926;42.670;23.316;2023-04-03T03:36:58;7.13;;;4.85;;
9773;SDS011;4926;42.670;23.316;2023-04-03T03:39:24;6.47;;;4.72;;
9773;SDS011;4926;42.670;23.316;2023-04-03T03:41:51;6.70;;;5.18;;
9773;SDS011;4926;42.670;23.316;2023-04-03T03:44:18;6.55;;;4.85;;
9773;SDS011;4926;42.670;23.316;2023-04-03T03:46:45;6.63;;;4.88;;
9773;SDS011;4926;42.670;23.316;2023-04-03T03:49:14;7.45;;;5.30;;
9773;SDS011;4926;42.670;23.316;2023-04-03T03:51:41;7.72;;;5.25;;
9773;SDS011;4926;42.670;23.316;2023-04-03T03:54:09;8.13;;;4.88;;
9773;SDS011;4926;42.670;23.316;2023-04-03T03:56:36;8.68;;;5.28;;
9773;SDS011;4926;42.670;23.316;2023-04-03T03:59:02;10.23;;;5.80;;
9773;SDS011;4926;42.670;23.316;2023-04-03T04:01:29;14.60;;;5.45;;
9773;SDS011;4926;42.670;23.316;2023-04-03T04:03:58;7.22;;;5.30;;
9773;SDS011;4926;42.670;23.316;2023-04-03T04:06:27;8.65;;;6.05;;
9773;SDS011;4926;42.670;23.316;2023-04-03T04:08:53;12.75;;;6.53;;
9773;SDS011;4926;42.670;23.316;2023-04-03T04:11:22;8.82;;;6.45;;
9773;SDS011;4926;42.670;23.316;2023-04-03T04:13:51;8.27;;;6.43;;
9773;SDS011;4926;42.670;23.316;2023-04-03T04:16:18;11.45;;;6.63;;
9773;SDS011;4926;42.670;23.316;2023-04-03T04:18:45;6.80;;;5.57;;
9773;SDS011;4926;42.670;23.316;2023-04-03T04:21:14;7.38;;;5.53;;
9773;SDS011;4926;42.670;23.316;2023-04-03T04:23:42;9.45;;;6.13;;
9773;SDS011;4926;42.670;23.316;2023-04-03T04:26:09;8.07;;;5.40;;
9773;SDS011;4926;42.670;23.316;2023-04-03T04:28:35;11.90;;;5.57;;
9773;SDS011;4926;42.670;23.316;2023-04-03T04:31:05;10.65;;;5.68;;
9773;SDS011;4926;42.670;23.316;2023-04-03T04:33:32;8.00;;;5.45;;
9773;SDS011;4926;42.670;23.316;2023-04-03T04:35:59;13.95;;;8.82;;
9773;SDS011;4926;42.670;23.316;2023-04-03T04:38:25;20.30;;;11.90;;
9773;SDS011;4926;42.670;23.316;2023-04-03T04:40:53;19.15;;;11.88;;
9773;SDS011;4926;42.670;23.316;2023-04-03T04:43:20;17.73;;;9.85;;
9773;SDS011;4926;42.670;23.316;2023-04-03T04:45:47;11.68;;;7.57;;
9773;SDS011;4926;42.670;23.316;2023-04-03T04:48:26;11.70;;;6.82;;
9773;SDS011;4926;42.670;23.316;2023-04-03T04:50:52;8.95;;;6.00;;
9773;SDS011;4926;42.670;23.316;2023-04-03T04:53:19;13.98;;;7.00;;
9773;SDS011;4926;42.670;23.316;2023-04-03T04:55:46;11.65;;;7.53;;
9773;SDS011;4926;42.670;23.316;2023-04-03T04:58:14;12.18;;;6.35;;
9773;SDS011;4926;42.670;23.316;2023-04-03T05:00:41;8.40;;;5.95;;
9773;SDS011;4926;42.670;23.316;2023-04-03T05:03:08;16.85;;;6.93;;
9773;SDS011;4926;42.670;23.316;2023-04-03T05:05:37;11.90;;;6.63;;
9773;SDS011;4926;42.670;23.316;2023-04-03T05:08:04;9.75;;;6.18;;
9773;SDS011;4926;42.670;23.316;2023-04-03T05:10:33;7.95;;;6.28;;
9773;SDS011;4926;42.670;23.316;2023-04-03T05:13:00;11.48;;;6.18;;
9773;SDS011;4926;42.670;23.316;2023-04-03T05:15:28;10.38;;;6.32;;
9773;SDS011;4926;42.670;23.316;2023-04-03T05:17:55;10.13;;;6.78;;
9773;SDS011;4926;42.670;23.316;2023-04-03T05:20:26;8.10;;;6.10;;
9773;SDS011;4926;42.670;23.316;2023-04-03T05:22:53;11.68;;;7.35;;
9773;SDS011;4926;42.670;23.316;2023-04-03T05:25:21;10.20;;;6.47;;
9773;SDS011;4926;42.670;23.316;2023-04-03T05:27:47;10.45;;;7.45;;
9773;SDS011;4926;42.670;23.316;2023-04-03T05:30:14;13.10;;;6.78;;
9773;SDS011;4926;42.670;23.316;2023-04-03T05:32:42;13.85;;;6.72;;
9773;SDS011;4926;42.670;23.316;2023-04-03T05:35:12;8.77;;;6.80;;
9773;SDS011;4926;42.670;23.316;2023-04-03T05:37:39;13.90;;;6.13;;
9773;SDS011;4926;42.670;23.316;2023-04-03T05:40:07;13.82;;;6.93;;
9773;SDS011;4926;42.670;23.316;2023-04-03T05:42:34;12.57;;;6.85;;
9773;SDS011;4926;42.670;23.316;2023-04-03T05:45:01;11.18;;;6.93;;
9773;SDS011;4926;42.670;23.316;2023-04-03T05:47:28;17.00;;;8.48;;
9773;SDS011;4926;42.670;23.316;2023-04-03T05:49:58;14.98;;;8.75;;
9773;SDS011;4926;42.670;23.316;2023-04-03T05:52:26;19.17;;;8.68;;
9773;SDS011;4926;42.670;23.316;2023-04-03T05:54:54;23.85;;;9.80;;
9773;SDS011;4926;42.670;23.316;2023-04-03T05:57:23;19.92;;;10.80;;
9773;SDS011;4926;42.670;23.316;2023-04-03T05:59:50;18.02;;;8.80;;
9773;SDS011;4926;42.670;23.316;2023-04-03T06:02:19;16.83;;;9.48;;
9773;SDS011;4926;42.670;23.316;2023-04-03T06:04:50;22.08;;;11.02;;
9773;SDS011;4926;42.670;23.316;2023-04-03T06:07:20;17.77;;;9.80;;
9773;SDS011;4926;42.670;23.316;2023-04-03T06:09:48;24.10;;;10.65;;
9773;SDS011;4926;42.670;23.316;2023-04-03T06:12:15;17.48;;;9.77;;
9773;SDS011;4926;42.670;23.316;2023-04-03T06:14:42;20.55;;;10.93;;
9773;SDS011;4926;42.670;23.316;2023-04-03T06:17:11;15.90;;;10.07;;
9773;SDS011;4926;42.670;23.316;2023-04-03T06:19:38;18.30;;;10.52;;
9773;SDS011;4926;42.670;23.316;2023-04-03T06:22:05;22.63;;;13.20;;
9773;SDS011;4926;42.670;23.316;2023-04-03T06:24:34;22.50;;;13.88;;
9773;SDS011;4926;42.670;23.316;2023-04-03T06:27:03;20.95;;;12.10;;
9773;SDS011;4926;42.670;23.316;2023-04-03T06:29:30;14.38;;;10.40;;
9773;SDS011;4926;42.670;23.316;2023-04-03T06:31:57;10.90;;;7.05;;
9773;SDS011;4926;42.670;23.316;2023-04-03T06:34:26;15.88;;;7.22;;
9773;SDS011;4926;42.670;23.316;2023-04-03T06:36:56;10.95;;;7.50;;
9773;SDS011;4926;42.670;23.316;2023-04-03T06:39:25;11.30;;;7.32;;
9773;SDS011;4926;42.670;23.316;2023-04-03T06:41:56;12.27;;;6.93;;
9773;SDS011;4926;42.670;23.316;2023-04-03T06:44:23;9.40;;;6.55;;
9773;SDS011;4926;42.670;23.316;2023-04-03T06:46:55;14.25;;;7.35;;
9773;SDS011;4926;42.670;23.316;2023-04-03T06:49:28;8.75;;;7.10;;
9773;SDS011;4926;42.670;23.316;2023-04-03T06:51:55;7.85;;;6.43;;
9773;SDS011;4926;42.670;23.316;2023-04-03T06:54:22;8.35;;;4.93;;
9773;SDS011;4926;42.670;23.316;2023-04-03T06:56:48;6.20;;;5.32;;
9773;SDS011;4926;42.670;23.316;2023-04-03T06:59:17;10.38;;;5.13;;
9773;SDS011;4926;42.670;23.316;2023-04-03T07:01:44;9.95;;;6.68;;
9773;SDS011;4926;42.670;23.316;2023-04-03T07:04:12;8.80;;;5.78;;
9773;SDS011;4926;42.670;23.316;2023-04-03T07:06:39;10.38;;;6.20;;
9773;SDS011;4926;42.670;23.316;2023-04-03T07:09:06;14.02;;;6.40;;
9773;SDS011;4926;42.670;23.316;2023-04-03T07:11:34;9.85;;;5.90;;
9773;SDS011;4926;42.670;23.316;2023-04-03T07:14:03;8.13;;;4.90;;
9773;SDS011;4926;42.670;23.316;2023-04-03T07:16:32;8.70;;;5.65;;
9773;SDS011;4926;42.670;23.316;2023-04-03T07:18:59;8.63;;;5.25;;
9773;SDS011;4926;42.670;23.316;2023-04-03T07:21:26;7.50;;;5.95;;
9773;SDS011;4926;42.670;23.316;2023-04-03T07:23:54;10.18;;;5.90;;
9773;SDS011;4926;42.670;23.316;2023-04-03T07:26:23;9.93;;;5.45;;
9773;SDS011;4926;42.670;23.316;2023-04-03T07:28:50;7.60;;;6.03;;
9773;SDS011;4926;42.670;23.316;2023-04-03T07:31:17;9.80;;;6.20;;
9773;SDS011;4926;42.670;23.316;2023-04-03T07:33:45;12.80;;;6.50;;
9773;SDS011;4926;42.670;23.316;2023-04-03T07:36:14;9.50;;;6.65;;
9773;SDS011;4926;42.670;23.316;2023-04-03T07:38:45;8.38;;;6.88;;
9773;SDS011;4926;42.670;23.316;2023-04-03T07:41:12;16.20;;;8.23;;
9773;SDS011;4926;42.670;23.316;2023-04-03T07:43:42;11.98;;;7.75;;
9773;SDS011;4926;42.670;23.316;2023-04-03T07:46:10;13.30;;;7.75;;
9773;SDS011;4926;42.670;23.316;2023-04-03T07:48:37;11.23;;;7.03;;
9773;SDS011;4926;42.670;23.316;2023-04-03T07:51:05;13.50;;;7.85;;
9773;SDS011;4926;42.670;23.316;2023-04-03T07:53:32;18.90;;;6.55;;
9773;SDS011;4926;42.670;23.316;2023-04-03T07:55:59;11.13;;;6.28;;
9773;SDS011;4926;42.670;23.316;2023-04-03T07:58:30;14.70;;;7.00;;
9773;SDS011;4926;42.670;23.316;2023-04-03T08:00:59;10.38;;;8.10;;
9773;SDS011;4926;42.670;23.316;2023-04-03T08:03:25;19.33;;;8.05;;
9773;SDS011;4926;42.670;23.316;2023-04-03T08:05:52;16.10;;;8.65;;
9773;SDS011;4926;42.670;23.316;2023-04-03T08:08:31;12.10;;;8.48;;
9773;SDS011;4926;42.670;23.316;2023-04-03T08:10:59;16.13;;;10.60;;
9773;SDS011;4926;42.670;23.316;2023-04-03T08:13:27;17.23;;;12.00;;
9773;SDS011;4926;42.670;23.316;2023-04-03T08:15:55;17.90;;;11.20;;
9773;SDS011;4926;42.670;23.316;2023-04-03T08:18:25;14.70;;;10.48;;
9773;SDS011;4926;42.670;23.316;2023-04-03T08:20:52;17.15;;;11.10;;
9773;SDS011;4926;42.670;23.316;2023-04-03T08:23:19;19.67;;;12.82;;
9773;SDS011;4926;42.670;23.316;2023-04-03T08:25:47;23.58;;;10.93;;
9773;SDS011;4926;42.670;23.316;2023-04-03T08:28:14;17.73;;;11.88;;
9773;SDS011;4926;42.670;23.316;2023-04-03T08:30:41;19.15;;;11.68;;
9773;SDS011;4926;42.670;23.316;2023-04-03T08:33:08;20.35;;;10.93;;
9773;SDS011;4926;42.670;23.316;2023-04-03T08:35:38;20.55;;;11.70;;
9773;SDS011;4926;42.670;23.316;2023-04-03T08:38:06;22.40;;;13.93;;
9773;SDS011;4926;42.670;23.316;2023-04-03T08:40:33;22.17;;;16.05;;
9773;SDS011;4926;42.670;23.316;2023-04-03T08:43:05;31.58;;;15.95;;
9773;SDS011;4926;42.670;23.316;2023-04-03T08:45:53;23.83;;;15.85;;
9773;SDS011;4926;42.670;23.316;2023-04-03T08:48:22;22.83;;;15.63;;
9773;SDS011;4926;42.670;23.316;2023-04-03T08:50:53;26.55;;;16.83;;
9773;SDS011;4926;42.670;23.316;2023-04-03T08:53:25;23.02;;;14.73;;
9773;SDS011;4926;42.670;23.316;2023-04-03T08:55:59;21.65;;;14.27;;
9773;SDS011;4926;42.670;23.316;2023-04-03T08:58:35;24.25;;;13.82;;
9773;SDS011;4926;42.670;23.316;2023-04-03T09:01:14;22.13;;;14.25;;
9773;SDS011;4926;42.670;23.316;2023-04-03T09:03:46;23.00;;;14.30;;
9773;SDS011;4926;42.670;23.316;2023-04-03T09:06:14;24.10;;;13.85;;
9773;SDS011;4926;42.670;23.316;2023-04-03T09:08:46;26.85;;;15.18;;
9773;SDS011;4926;42.670;23.316;2023-04-03T09:11:19;20.77;;;13.55;;
9773;SDS011;4926;42.670;23.316;2023-04-03T09:13:54;21.70;;;12.45;;
9773;SDS011;4926;42.670;23.316;2023-04-03T09:16:28;18.85;;;12.32;;
9773;SDS011;4926;42.670;23.316;2023-04-03T09:19:04;22.92;;;11.48;;
9773;SDS011;4926;42.670;23.316;2023-04-03T09:21:41;17.02;;;10.57;;
9773;SDS011;4926;42.670;23.316;2023-04-03T09:24:09;15.65;;;9.85;;
9773;SDS011;4926;42.670;23.316;2023-04-03T09:26:39;15.13;;;9.75;;
9773;SDS011;4926;42.670;23.316;2023-04-03T09:29:12;11.38;;;8.88;;
9773;SDS011;4926;42.670;23.316;2023-04-03T09:31:44;16.48;;;9.45;;
9773;SDS011;4926;42.670;23.316;2023-04-03T09:34:14;14.27;;;9.18;;
9773;SDS011;4926;42.670;23.316;2023-04-03T09:36:47;17.38;;;9.65;;
9773;SDS011;4926;42.670;23.316;2023-04-03T09:39:18;16.08;;;8.70;;
9773;SDS011;4926;42.670;23.316;2023-04-03T09:41:57;15.35;;;7.68;;
9773;SDS011;4926;42.670;23.316;2023-04-03T09:44:28;12.65;;;6.75;;
9773;SDS011;4926;42.670;23.316;2023-04-03T09:46:56;5.65;;;4.40;;
9773;SDS011;4926;42.670;23.316;2023-04-03T09:49:23;5.35;;;4.07;;
9773;SDS011;4926;42.670;23.316;2023-04-03T09:51:50;8.00;;;4.40;;
9773;SDS011;4926;42.670;23.316;2023-04-03T09:54:30;4.75;;;3.75;;
9773;SDS011;4926;42.670;23.316;2023-04-03T09:57:07;6.43;;;4.28;;
9773;SDS011;4926;42.670;23.316;2023-04-03T09:59:42;8.98;;;5.40;;
9773;SDS011;4926;42.670;23.316;2023-04-03T10:02:22;11.68;;;6.82;;
9773;SDS011;4926;42.670;23.316;2023-04-03T10:04:56;8.07;;;5.75;;
9773;SDS011;4926;42.670;23.316;2023-04-03T10:07:27;8.48;;;4.60;;
9773;SDS011;4926;42.670;23.316;2023-04-03T10:09:56;5.68;;;4.40;;
9773;SDS011;4926;42.670;23.316;2023-04-03T10:12:23;8.23;;;5.38;;
9773;SDS011;4926;42.670;23.316;2023-04-03T10:14:55;10.85;;;6.13;;
9773;SDS011;4926;42.670;23.316;2023-04-03T10:17:36;8.77;;;6.05;;
9773;SDS011;4926;42.670;23.316;2023-04-03T10:20:19;9.10;;;5.68;;
9773;SDS011;4926;42.670;23.316;2023-04-03T10:22:56;5.68;;;4.55;;
9773;SDS011;4926;42.670;23.316;2023-04-03T10:25:31;8.32;;;5.10;;
9773;SDS011;4926;42.670;23.316;2023-04-03T10:28:05;5.60;;;4.63;;
9773;SDS011;4926;42.670;23.316;2023-04-03T10:30:41;13.57;;;5.75;;
9773;SDS011;4926;42.670;23.316;2023-04-03T10:33:25;9.50;;;6.60;;
9773;SDS011;4926;42.670;23.316;2023-04-03T10:36:02;9.88;;;6.22;;
9773;SDS011;4926;42.670;23.316;2023-04-03T10:38:41;15.48;;;7.15;;
9773;SDS011;4926;42.670;23.316;2023-04-03T10:41:15;9.57;;;5.55;;
9773;SDS011;4926;42.670;23.316;2023-04-03T10:43:48;11.63;;;6.10;;
9773;SDS011;4926;42.670;23.316;2023-04-03T10:46:27;10.25;;;5.30;;
9773;SDS011;4926;42.670;23.316;2023-04-03T10:49:05;5.18;;;3.75;;
9773;SDS011;4926;42.670;23.316;2023-04-03T10:51:43;6.53;;;3.40;;
9773;SDS011;4926;42.670;23.316;2023-04-03T10:54:16;4.78;;;3.35;;
9773;SDS011;4926;42.670;23.316;2023-04-03T10:56:50;6.25;;;3.40;;
9773;SDS011;4926;42.670;23.316;2023-04-03T10:59:22;6.60;;;3.45;;
9773;SDS011;4926;42.670;23.316;2023-04-03T11:01:56;7.40;;;3.30;;
9773;SDS011;4926;42.670;23.316;2023-04-03T11:04:28;5.97;;;4.18;;
9773;SDS011;4926;42.670;23.316;2023-04-03T11:07:01;6.10;;;3.53;;
9773;SDS011;4926;42.670;23.316;2023-04-03T11:09:33;5.18;;;3.15;;
9773;SDS011;4926;42.670;23.316;2023-04-03T11:12:04;4.13;;;2.60;;
9773;SDS011;4926;42.670;23.316;2023-04-03T11:14:38;3.42;;;2.67;;
9773;SDS011;4926;42.670;23.316;2023-04-03T11:17:15;3.47;;;2.80;;
9773;SDS011;4926;42.670;23.316;2023-04-03T11:19:51;3.10;;;2.53;;
9773;SDS011;4926;42.670;23.316;2023-04-03T11:22:27;5.70;;;2.90;;
9773;SDS011;4926;42.670;23.316;2023-04-03T11:25:10;3.97;;;2.95;;
9773;SDS011;4926;42.670;23.316;2023-04-03T11:27:47;4.28;;;3.05;;
9773;SDS011;4926;42.670;23.316;2023-04-03T11:30:18;9.40;;;3.10;;
9773;SDS011;4926;42.670;23.316;2023-04-03T11:33:12;4.50;;;3.03;;
9773;SDS011;4926;42.670;23.316;2023-04-03T11:35:57;5.97;;;3.25;;
9773;SDS011;4926;42.670;23.316;2023-04-03T11:38:28;3.58;;;2.65;;
9773;SDS011;4926;42.670;23.316;2023-04-03T11:40:59;2.97;;;2.60;;
9773;SDS011;4926;42.670;23.316;2023-04-03T11:43:28;4.28;;;2.90;;
9773;SDS011;4926;42.670;23.316;2023-04-03T11:45:57;6.03;;;3.17;;
9773;SDS011;4926;42.670;23.316;2023-04-03T12:03:07;4.78;;;3.47;;
9773;SDS011;4926;42.670;23.316;2023-04-03T12:09:27;3.42;;;3.10;;
9773;SDS011;4926;42.670;23.316;2023-04-03T12:12:24;4.95;;;2.80;;
9773;SDS011;4926;42.670;23.316;2023-04-03T12:15:11;4.30;;;3.58;;
9773;SDS011;4926;42.670;23.316;2023-04-03T12:17:49;4.85;;;4.15;;
9773;SDS011;4926;42.670;23.316;2023-04-03T12:23:23;5.53;;;3.78;;
9773;SDS011;4926;42.670;23.316;2023-04-03T12:26:00;5.10;;;3.88;;
9773;SDS011;4926;42.670;23.316;2023-04-03T12:28:35;5.88;;;3.97;;
9773;SDS011;4926;42.670;23.316;2023-04-03T12:31:08;5.07;;;4.28;;
9773;SDS011;4926;42.670;23.316;2023-04-03T12:33:51;5.05;;;3.90;;
9773;SDS011;4926;42.670;23.316;2023-04-03T12:36:44;4.15;;;3.80;;
9773;SDS011;4926;42.670;23.316;2023-04-03T12:39:41;3.70;;;3.35;;
9773;SDS011;4926;42.670;23.316;2023-04-03T12:42:23;4.15;;;3.75;;
9773;SDS011;4926;42.670;23.316;2023-04-03T12:45:02;4.65;;;3.75;;
9773;SDS011;4926;42.670;23.316;2023-04-03T12:47:40;4.47;;;4.07;;
9773;SDS011;4926;42.670;23.316;2023-04-03T12:50:17;5.80;;;4.85;;
9773;SDS011;4926;42.670;23.316;2023-04-03T12:52:50;5.90;;;4.88;;
9773;SDS011;4926;42.670;23.316;2023-04-03T12:55:21;6.07;;;4.68;;
9773;SDS011;4926;42.670;23.316;2023-04-03T12:57:49;6.68;;;4.97;;
9773;SDS011;4926;42.670;23.316;2023-04-03T13:00:20;6.35;;;4.97;;
9773;SDS011;4926;42.670;23.316;2023-04-03T13:02:54;5.35;;;4.72;;
9773;SDS011;4926;42.670;23.316;2023-04-03T13:05:32;6.57;;;5.28;;
9773;SDS011;4926;42.670;23.316;2023-04-03T13:08:03;6.47;;;5.50;;
9773;SDS011;4926;42.670;23.316;2023-04-03T13:10:31;9.10;;;5.95;;
9773;SDS011;4926;42.670;23.316;2023-04-03T13:13:08;9.02;;;6.25;;
9773;SDS011;4926;42.670;23.316;2023-04-03T13:15:45;7.10;;;5.80;;
9773;SDS011;4926;42.670;23.316;2023-04-03T13:18:30;10.45;;;7.68;;
9773;SDS011;4926;42.670;23.316;2023-04-03T13:21:00;7.53;;;6.03;;
9773;SDS011;4926;42.670;23.316;2023-04-03T13:23:30;8.63;;;6.15;;
9773;SDS011;4926;42.670;23.316;2023-04-03T13:26:06;7.88;;;6.50;;
9773;SDS011;4926;42.670;23.316;2023-04-03T13:28:35;7.57;;;6.32;;
9773;SDS011;4926;42.670;23.316;2023-04-03T13:31:04;9.50;;;7.13;;
9773;SDS011;4926;42.670;23.316;2023-04-03T13:33:38;8.82;;;6.68;;
9773;SDS011;4926;42.670;23.316;2023-04-03T13:36:11;6.68;;;6.03;;
9773;SDS011;4926;42.670;23.316;2023-04-03T13:38:44;9.02;;;6.82;;
9773;SDS011;4926;42.670;23.316;2023-04-03T13:41:23;7.15;;;6.28;;
9773;SDS011;4926;42.670;23.316;2023-04-03T13:43:52;7.97;;;6.40;;
9773;SDS011;4926;42.670;23.316;2023-04-03T13:46:23;11.43;;;7.30;;
9773;SDS011;4926;42.670;23.316;2023-04-03T13:48:52;7.20;;;6.50;;
9773;SDS011;4926;42.670;23.316;2023-04-03T13:51:22;9.13;;;7.13;;
9773;SDS011;4926;42.670;23.316;2023-04-03T13:53:51;8.95;;;7.47;;
9773;SDS011;4926;42.670;23.316;2023-04-03T13:56:30;8.50;;;7.43;;
9773;SDS011;4926;42.670;23.316;2023-04-03T13:59:02;8.82;;;7.93;;
9773;SDS011;4926;42.670;23.316;2023-04-03T14:01:40;8.48;;;7.28;;
9773;SDS011;4926;42.670;23.316;2023-04-03T14:04:10;9.70;;;8.00;;
9773;SDS011;4926;42.670;23.316;2023-04-03T14:06:42;8.77;;;7.88;;
9773;SDS011;4926;42.670;23.316;2023-04-03T14:09:11;9.18;;;7.20;;
9773;SDS011;4926;42.670;23.316;2023-04-03T14:11:39;8.60;;;7.50;;
9773;SDS011;4926;42.670;23.316;2023-04-03T14:14:11;7.65;;;6.85;;
9773;SDS011;4926;42.670;23.316;2023-04-03T14:16:42;7.53;;;6.75;;
9773;SDS011;4926;42.670;23.316;2023-04-03T14:19:14;7.70;;;6.88;;
9773;SDS011;4926;42.670;23.316;2023-04-03T14:21:45;8.30;;;6.63;;
9773;SDS011;4926;42.670;23.316;2023-04-03T14:24:12;8.10;;;7.30;;
9773;SDS011;4926;42.670;23.316;2023-04-03T14:26:42;10.40;;;7.78;;
9773;SDS011;4926;42.670;23.316;2023-04-03T14:29:12;8.70;;;7.55;;
9773;SDS011;4926;42.670;23.316;2023-04-03T14:31:39;7.88;;;7.10;;
9773;SDS011;4926;42.670;23.316;2023-04-03T14:34:07;8.75;;;7.32;;
9773;SDS011;4926;42.670;23.316;2023-04-03T14:36:33;13.93;;;8.00;;
9773;SDS011;4926;42.670;23.316;2023-04-03T14:39:00;8.25;;;7.05;;
9773;SDS011;4926;42.670;23.316;2023-04-03T14:41:27;8.35;;;7.43;;
9773;SDS011;4926;42.670;23.316;2023-04-03T14:43:54;7.75;;;6.93;;
9773;SDS011;4926;42.670;23.316;2023-04-03T14:46:24;7.97;;;6.72;;
9773;SDS011;4926;42.670;23.316;2023-04-03T14:48:56;7.40;;;6.70;;
9773;SDS011;4926;42.670;23.316;2023-04-03T14:51:23;7.10;;;6.40;;
9773;SDS011;4926;42.670;23.316;2023-04-03T14:53:50;8.00;;;6.82;;
9773;SDS011;4926;42.670;23.316;2023-04-03T14:56:19;8.05;;;7.13;;
9773;SDS011;4926;42.670;23.316;2023-04-03T14:58:49;6.75;;;6.15;;
9773;SDS011;4926;42.670;23.316;2023-04-03T15:01:19;7.35;;;5.97;;
9773;SDS011;4926;42.670;23.316;2023-04-03T15:03:47;7.13;;;6.43;;
9773;SDS011;4926;42.670;23.316;2023-04-03T15:06:14;7.18;;;6.47;;
9773;SDS011;4926;42.670;23.316;2023-04-03T15:08:41;6.80;;;5.90;;
9773;SDS011;4926;42.670;23.316;2023-04-03T15:11:10;6.80;;;6.10;;
9773;SDS011;4926;42.670;23.316;2023-04-03T15:13:37;6.20;;;5.60;;
9773;SDS011;4926;42.670;23.316;2023-04-03T15:16:11;6.57;;;5.88;;
9773;SDS011;4926;42.670;23.316;2023-04-03T15:18:41;6.80;;;5.80;;
9773;SDS011;4926;42.670;23.316;2023-04-03T15:21:09;5.90;;;5.30;;
9773;SDS011;4926;42.670;23.316;2023-04-03T15:23:36;6.63;;;5.75;;
9773;SDS011;4926;42.670;23.316;2023-04-03T15:26:02;6.32;;;5.72;;
9773;SDS011;4926;42.670;23.316;2023-04-03T15:28:31;6.20;;;5.57;;
9773;SDS011;4926;42.670;23.316;2023-04-03T15:31:00;7.18;;;6.00;;
9773;SDS011;4926;42.670;23.316;2023-04-03T15:33:28;7.22;;;6.07;;
9773;SDS011;4926;42.670;23.316;2023-04-03T15:35:58;6.97;;;6.07;;
9773;SDS011;4926;42.670;23.316;2023-04-03T15:38:28;8.20;;;6.43;;